sensor_id;sensor_type;location;lat;lon;timestamp;pressure;altitude;pressure_sealevel;temperature
64904;BMP280;51401;48.882;12.598;2023-06-22T00:01:54;37441.78;;;19.60
64904;BMP280;51401;48.882;12.598;2023-06-22T00:04:20;37470.50;;;19.56
64904;BMP280;51401;48.882;12.598;2023-06-22T00:06:45;37470.28;;;19.55
64904;BMP280;51401;48.882;12.598;2023-06-22T00:09:11;37556.13;;;19.52
64904;BMP280;51401;48.882;12.598;2023-06-22T00:11:36;37507.94;;;19.53
64904;BMP280;51401;48.882;12.598;2023-06-22T00:14:03;37437.91;;;19.52
64904;BMP280;51401;48.882;12.598;2023-06-22T00:16:28;37383.13;;;19.51
64904;BMP280;51401;48.882;12.598;2023-06-22T00:18:54;37269.84;;;19.51
64904;BMP280;51401;48.882;12.598;2023-06-22T00:21:19;37174.97;;;19.46
64904;BMP280;51401;48.882;12.598;2023-06-22T00:23:47;36900.44;;;19.43
64904;BMP280;51401;48.882;12.598;2023-06-22T00:26:13;36574.69;;;19.35
64904;BMP280;51401;48.882;12.598;2023-06-22T00:28:39;36252.13;;;19.27
64904;BMP280;51401;48.882;12.598;2023-06-22T00:31:05;35869.06;;;19.22
64904;BMP280;51401;48.882;12.598;2023-06-22T00:33:30;35537.31;;;19.17
64904;BMP280;51401;48.882;12.598;2023-06-22T00:35:56;35064.13;;;19.17
64904;BMP280;51401;48.882;12.598;2023-06-22T00:38:22;34761.16;;;19.18
64904;BMP280;51401;48.882;12.598;2023-06-22T00:40:47;34260.72;;;19.26
64904;BMP280;51401;48.882;12.598;2023-06-22T00:43:12;34019.91;;;19.28
64904;BMP280;51401;48.882;12.598;2023-06-22T00:45:38;33626.94;;;19.35
64904;BMP280;51401;48.882;12.598;2023-06-22T00:48:03;33610.28;;;19.32
64904;BMP280;51401;48.882;12.598;2023-06-22T00:50:32;33659.16;;;19.26
64904;BMP280;51401;48.882;12.598;2023-06-22T00:53:05;33539.25;;;19.22
64904;BMP280;51401;48.882;12.598;2023-06-22T00:55:38;33248.75;;;19.28
64904;BMP280;51401;48.882;12.598;2023-06-22T00:58:05;33284.78;;;19.22
64904;BMP280;51401;48.882;12.598;2023-06-22T01:00:33;33224.88;;;19.20
64904;BMP280;51401;48.882;12.598;2023-06-22T01:02:59;33180.75;;;19.19
64904;BMP280;51401;48.882;12.598;2023-06-22T01:05:24;33269.47;;;19.16
64904;BMP280;51401;48.882;12.598;2023-06-22T01:08:06;33338.00;;;19.14
64904;BMP280;51401;48.882;12.598;2023-06-22T01:10:41;33529.47;;;19.11
64904;BMP280;51401;48.882;12.598;2023-06-22T01:15:49;33573.34;;;19.17
64904;BMP280;51401;48.882;12.598;2023-06-22T01:18:17;33783.44;;;19.16
64904;BMP280;51401;48.882;12.598;2023-06-22T01:20:43;34079.03;;;19.10
64904;BMP280;51401;48.882;12.598;2023-06-22T01:26:22;34640.66;;;19.07
64904;BMP280;51401;48.882;12.598;2023-06-22T01:28:54;34791.44;;;19.05
64904;BMP280;51401;48.882;12.598;2023-06-22T01:31:24;34762.81;;;19.10
64904;BMP280;51401;48.882;12.598;2023-06-22T01:33:59;34862.25;;;19.14
64904;BMP280;51401;48.882;12.598;2023-06-22T01:36:26;35076.09;;;19.15
64904;BMP280;51401;48.882;12.598;2023-06-22T01:38:52;35278.47;;;19.19
64904;BMP280;51401;48.882;12.598;2023-06-22T01:41:19;35819.63;;;19.10
64904;BMP280;51401;48.882;12.598;2023-06-22T01:43:45;36090.13;;;19.11
64904;BMP280;51401;48.882;12.598;2023-06-22T01:46:12;36494.22;;;19.06
64904;BMP280;51401;48.882;12.598;2023-06-22T01:48:38;36493.53;;;19.16
64904;BMP280;51401;48.882;12.598;2023-06-22T01:51:04;36845.53;;;19.15
64904;BMP280;51401;48.882;12.598;2023-06-22T01:53:30;37182.59;;;19.15
64904;BMP280;51401;48.882;12.598;2023-06-22T01:55:56;37456.13;;;19.16
64904;BMP280;51401;48.882;12.598;2023-06-22T01:58:25;38003.22;;;19.09
64904;BMP280;51401;48.882;12.598;2023-06-22T02:00:56;38260.63;;;19.09
64904;BMP280;51401;48.882;12.598;2023-06-22T02:03:26;38601.22;;;19.05
64904;BMP280;51401;48.882;12.598;2023-06-22T02:05:58;38887.75;;;19.07
64904;BMP280;51401;48.882;12.598;2023-06-22T02:08:33;39386.72;;;19.01
64904;BMP280;51401;48.882;12.598;2023-06-22T02:11:00;39646.78;;;19.01
64904;BMP280;51401;48.882;12.598;2023-06-22T02:13:27;40072.66;;;18.93
64904;BMP280;51401;48.882;12.598;2023-06-22T02:15:53;40458.06;;;18.87
64904;BMP280;51401;48.882;12.598;2023-06-22T02:18:18;40697.97;;;18.83
64904;BMP280;51401;48.882;12.598;2023-06-22T02:20:45;41314.81;;;18.66
64904;BMP280;51401;48.882;12.598;2023-06-22T02:23:11;41578.16;;;18.63
64904;BMP280;51401;48.882;12.598;2023-06-22T02:25:36;41726.78;;;18.57
64904;BMP280;51401;48.882;12.598;2023-06-22T02:28:02;41739.09;;;18.56
64904;BMP280;51401;48.882;12.598;2023-06-22T02:30:27;41634.44;;;18.53
64904;BMP280;51401;48.882;12.598;2023-06-22T02:32:53;41852.38;;;18.42
64904;BMP280;51401;48.882;12.598;2023-06-22T02:35:28;41885.00;;;18.41
64904;BMP280;51401;48.882;12.598;2023-06-22T02:38:00;41634.09;;;18.43
64904;BMP280;51401;48.882;12.598;2023-06-22T02:40:26;41505.91;;;18.44
64904;BMP280;51401;48.882;12.598;2023-06-22T02:42:52;41563.31;;;18.36
64904;BMP280;51401;48.882;12.598;2023-06-22T02:45:17;41678.13;;;18.30
64904;BMP280;51401;48.882;12.598;2023-06-22T02:47:43;41586.56;;;18.32
64904;BMP280;51401;48.882;12.598;2023-06-22T02:50:09;41350.59;;;18.34
64904;BMP280;51401;48.882;12.598;2023-06-22T02:52:34;41077.53;;;18.33
64904;BMP280;51401;48.882;12.598;2023-06-22T02:54:59;40948.84;;;18.33
64904;BMP280;51401;48.882;12.598;2023-06-22T02:57:25;40908.63;;;18.30
64904;BMP280;51401;48.882;12.598;2023-06-22T02:59:50;40973.09;;;18.26
64904;BMP280;51401;48.882;12.598;2023-06-22T03:02:15;40936.81;;;18.25
64904;BMP280;51401;48.882;12.598;2023-06-22T03:04:41;40927.75;;;18.23
64904;BMP280;51401;48.882;12.598;2023-06-22T03:07:07;40807.63;;;18.24
64904;BMP280;51401;48.882;12.598;2023-06-22T03:09:32;40611.66;;;18.28
64904;BMP280;51401;48.882;12.598;2023-06-22T03:11:57;40497.41;;;18.26
64904;BMP280;51401;48.882;12.598;2023-06-22T03:14:23;40412.25;;;18.26
64904;BMP280;51401;48.882;12.598;2023-06-22T03:16:48;40152.00;;;18.35
64904;BMP280;51401;48.882;12.598;2023-06-22T03:19:13;40030.31;;;18.33
64904;BMP280;51401;48.882;12.598;2023-06-22T03:21:39;40015.88;;;18.30
64904;BMP280;51401;48.882;12.598;2023-06-22T03:24:06;40051.09;;;18.29
64904;BMP280;51401;48.882;12.598;2023-06-22T03:26:31;39893.72;;;18.33
64904;BMP280;51401;48.882;12.598;2023-06-22T03:28:57;39848.47;;;18.35
64904;BMP280;51401;48.882;12.598;2023-06-22T03:31:22;39640.66;;;18.40
64904;BMP280;51401;48.882;12.598;2023-06-22T03:33:49;39543.94;;;18.42
64904;BMP280;51401;48.882;12.598;2023-06-22T03:36:15;39416.59;;;18.45
64904;BMP280;51401;48.882;12.598;2023-06-22T03:38:48;39219.78;;;18.52
64904;BMP280;51401;48.882;12.598;2023-06-22T03:41:14;39053.31;;;18.59
64904;BMP280;51401;48.882;12.598;2023-06-22T03:43:40;38905.31;;;18.66
64904;BMP280;51401;48.882;12.598;2023-06-22T03:46:05;38736.97;;;18.74
64904;BMP280;51401;48.882;12.598;2023-06-22T03:48:31;38777.59;;;18.78
64904;BMP280;51401;48.882;12.598;2023-06-22T03:50:56;38843.41;;;18.86
64904;BMP280;51401;48.882;12.598;2023-06-22T03:53:21;39097.41;;;18.89
64904;BMP280;51401;48.882;12.598;2023-06-22T03:55:51;39066.19;;;19.03
64904;BMP280;51401;48.882;12.598;2023-06-22T03:58:18;39398.56;;;19.09
64904;BMP280;51401;48.882;12.598;2023-06-22T04:00:45;39780.03;;;19.19
64904;BMP280;51401;48.882;12.598;2023-06-22T04:03:11;40307.28;;;19.32
64904;BMP280;51401;48.882;12.598;2023-06-22T04:05:38;40835.91;;;19.46
64904;BMP280;51401;48.882;12.598;2023-06-22T04:08:04;41621.44;;;19.59
64904;BMP280;51401;48.882;12.598;2023-06-22T04:10:29;42441.88;;;19.77
64904;BMP280;51401;48.882;12.598;2023-06-22T04:12:54;43278.50;;;20.04
64904;BMP280;51401;48.882;12.598;2023-06-22T04:15:20;44859.31;;;20.16
64904;BMP280;51401;48.882;12.598;2023-06-22T04:17:45;46724.44;;;20.38
64904;BMP280;51401;48.882;12.598;2023-06-22T04:20:10;49046.91;;;20.69
64904;BMP280;51401;48.882;12.598;2023-06-22T04:22:36;52314.38;;;20.81
64904;BMP280;51401;48.882;12.598;2023-06-22T04:25:01;55340.31;;;20.97
64904;BMP280;51401;48.882;12.598;2023-06-22T04:27:26;58461.91;;;21.06
64904;BMP280;51401;48.882;12.598;2023-06-22T04:29:52;60772.41;;;21.24
64904;BMP280;51401;48.882;12.598;2023-06-22T04:32:18;62651.13;;;21.36
64904;BMP280;51401;48.882;12.598;2023-06-22T04:34:43;64598.91;;;21.59
64904;BMP280;51401;48.882;12.598;2023-06-22T04:37:09;65889.41;;;21.85
64904;BMP280;51401;48.882;12.598;2023-06-22T04:39:34;68527.88;;;22.03
64904;BMP280;51401;48.882;12.598;2023-06-22T04:41:59;69249.03;;;22.03
64904;BMP280;51401;48.882;12.598;2023-06-22T04:44:26;69840.47;;;22.18
64904;BMP280;51401;48.882;12.598;2023-06-22T04:46:53;70902.00;;;22.33
64904;BMP280;51401;48.882;12.598;2023-06-22T04:49:20;71705.97;;;22.55
64904;BMP280;51401;48.882;12.598;2023-06-22T04:51:46;72249.88;;;22.49
64904;BMP280;51401;48.882;12.598;2023-06-22T04:54:11;73235.19;;;22.61
64904;BMP280;51401;48.882;12.598;2023-06-22T04:56:37;73089.16;;;22.84
64904;BMP280;51401;48.882;12.598;2023-06-22T04:59:03;74154.66;;;22.94
64904;BMP280;51401;48.882;12.598;2023-06-22T05:01:28;74459.59;;;22.78
64904;BMP280;51401;48.882;12.598;2023-06-22T05:03:56;73618.69;;;22.74
64904;BMP280;51401;48.882;12.598;2023-06-22T05:06:22;74480.94;;;22.90
64904;BMP280;51401;48.882;12.598;2023-06-22T05:08:52;74448.56;;;23.13
64904;BMP280;51401;48.882;12.598;2023-06-22T05:11:17;74911.59;;;23.43
64904;BMP280;51401;48.882;12.598;2023-06-22T05:13:42;75177.72;;;23.39
64904;BMP280;51401;48.882;12.598;2023-06-22T05:16:07;75417.63;;;23.59
64904;BMP280;51401;48.882;12.598;2023-06-22T05:18:33;76299.09;;;23.25
64904;BMP280;51401;48.882;12.598;2023-06-22T05:21:00;75714.94;;;23.57
64904;BMP280;51401;48.882;12.598;2023-06-22T05:23:25;76065.38;;;23.64
64904;BMP280;51401;48.882;12.598;2023-06-22T05:25:51;76444.09;;;23.60
64904;BMP280;51401;48.882;12.598;2023-06-22T05:28:16;75861.22;;;23.61
64904;BMP280;51401;48.882;12.598;2023-06-22T05:30:41;76695.16;;;24.14
64904;BMP280;51401;48.882;12.598;2023-06-22T05:33:07;76958.53;;;24.26
64904;BMP280;51401;48.882;12.598;2023-06-22T05:35:32;77574.41;;;24.06
64904;BMP280;51401;48.882;12.598;2023-06-22T05:37:57;76729.25;;;23.63
64904;BMP280;51401;48.882;12.598;2023-06-22T05:40:23;77402.69;;;24.46
64904;BMP280;51401;48.882;12.598;2023-06-22T05:42:48;77844.97;;;23.94
64904;BMP280;51401;48.882;12.598;2023-06-22T05:45:13;78395.78;;;24.15
64904;BMP280;51401;48.882;12.598;2023-06-22T05:47:39;78089.66;;;24.30
64904;BMP280;51401;48.882;12.598;2023-06-22T05:50:05;78439.19;;;24.70
64904;BMP280;51401;48.882;12.598;2023-06-22T05:52:33;79908.63;;;24.78
64904;BMP280;51401;48.882;12.598;2023-06-22T05:54:58;78962.84;;;24.90
64904;BMP280;51401;48.882;12.598;2023-06-22T05:57:23;79879.59;;;24.83
64904;BMP280;51401;48.882;12.598;2023-06-22T05:59:49;78966.72;;;24.75
64904;BMP280;51401;48.882;12.598;2023-06-22T06:02:14;79639.00;;;24.62
64904;BMP280;51401;48.882;12.598;2023-06-22T06:04:40;80135.84;;;25.69
64904;BMP280;51401;48.882;12.598;2023-06-22T06:07:05;81040.50;;;25.31
64904;BMP280;51401;48.882;12.598;2023-06-22T06:09:30;82163.59;;;25.66
64904;BMP280;51401;48.882;12.598;2023-06-22T06:11:56;81636.41;;;25.37
64904;BMP280;51401;48.882;12.598;2023-06-22T06:14:21;81209.59;;;25.20
64904;BMP280;51401;48.882;12.598;2023-06-22T06:16:48;81115.34;;;25.39
64904;BMP280;51401;48.882;12.598;2023-06-22T06:19:13;81040.03;;;25.44
64904;BMP280;51401;48.882;12.598;2023-06-22T06:21:39;81545.63;;;25.65
64904;BMP280;51401;48.882;12.598;2023-06-22T06:24:04;82521.09;;;25.99
64904;BMP280;51401;48.882;12.598;2023-06-22T06:26:29;83059.75;;;26.01
64904;BMP280;51401;48.882;12.598;2023-06-22T06:28:58;82378.47;;;26.04
64904;BMP280;51401;48.882;12.598;2023-06-22T06:31:24;82794.13;;;26.11
64904;BMP280;51401;48.882;12.598;2023-06-22T06:33:49;83227.72;;;26.13
64904;BMP280;51401;48.882;12.598;2023-06-22T06:36:15;83680.88;;;26.70
64904;BMP280;51401;48.882;12.598;2023-06-22T06:38:41;84176.13;;;26.49
64904;BMP280;51401;48.882;12.598;2023-06-22T06:41:07;84350.22;;;26.78
64904;BMP280;51401;48.882;12.598;2023-06-22T06:43:32;85367.19;;;27.36
64904;BMP280;51401;48.882;12.598;2023-06-22T06:45:57;84440.22;;;27.22
64904;BMP280;51401;48.882;12.598;2023-06-22T06:48:22;84446.94;;;26.56
64904;BMP280;51401;48.882;12.598;2023-06-22T06:50:48;85071.22;;;27.70
64904;BMP280;51401;48.882;12.598;2023-06-22T06:53:13;84735.88;;;27.59
64904;BMP280;51401;48.882;12.598;2023-06-22T06:55:38;85963.59;;;27.62
64904;BMP280;51401;48.882;12.598;2023-06-22T06:58:04;86072.25;;;27.75
64904;BMP280;51401;48.882;12.598;2023-06-22T07:00:32;86433.31;;;27.64
64904;BMP280;51401;48.882;12.598;2023-06-22T07:02:58;87935.16;;;28.28
64904;BMP280;51401;48.882;12.598;2023-06-22T07:05:23;90132.28;;;28.28
64904;BMP280;51401;48.882;12.598;2023-06-22T07:07:48;93098.94;;;28.33
64904;BMP280;51401;48.882;12.598;2023-06-22T07:10:14;94251.94;;;28.32
64904;BMP280;51401;48.882;12.598;2023-06-22T07:12:40;97219.81;;;28.10
64904;BMP280;51401;48.882;12.598;2023-06-22T07:15:08;96847.59;;;28.40
64904;BMP280;51401;48.882;12.598;2023-06-22T07:17:34;96142.69;;;28.40
64904;BMP280;51401;48.882;12.598;2023-06-22T07:20:00;95911.53;;;28.88
64904;BMP280;51401;48.882;12.598;2023-06-22T07:22:25;95937.25;;;29.01
64904;BMP280;51401;48.882;12.598;2023-06-22T07:24:51;95932.78;;;28.64
64904;BMP280;51401;48.882;12.598;2023-06-22T07:27:16;95802.84;;;28.58
64904;BMP280;51401;48.882;12.598;2023-06-22T07:29:44;95745.69;;;28.44
64904;BMP280;51401;48.882;12.598;2023-06-22T07:32:10;95274.13;;;27.81
64904;BMP280;51401;48.882;12.598;2023-06-22T07:34:35;95007.03;;;28.25
64904;BMP280;51401;48.882;12.598;2023-06-22T07:37:03;95227.03;;;29.34
64904;BMP280;51401;48.882;12.598;2023-06-22T07:39:29;95841.44;;;29.36
64904;BMP280;51401;48.882;12.598;2023-06-22T07:41:55;96254.56;;;28.89
64904;BMP280;51401;48.882;12.598;2023-06-22T07:44:20;96692.63;;;29.61
64904;BMP280;51401;48.882;12.598;2023-06-22T07:46:45;96628.50;;;29.26
64904;BMP280;51401;48.882;12.598;2023-06-22T07:49:11;97070.97;;;29.89
64904;BMP280;51401;48.882;12.598;2023-06-22T07:51:37;97315.09;;;30.55
64904;BMP280;51401;48.882;12.598;2023-06-22T07:54:02;97008.22;;;30.38
64904;BMP280;51401;48.882;12.598;2023-06-22T07:56:27;97257.56;;;30.69
64904;BMP280;51401;48.882;12.598;2023-06-22T07:58:53;97251.50;;;30.69
64904;BMP280;51401;48.882;12.598;2023-06-22T08:01:18;97165.09;;;30.95
64904;BMP280;51401;48.882;12.598;2023-06-22T08:03:47;97036.66;;;30.55
64904;BMP280;51401;48.882;12.598;2023-06-22T08:06:13;97003.72;;;30.60
64904;BMP280;51401;48.882;12.598;2023-06-22T08:08:38;96830.59;;;30.70
64904;BMP280;51401;48.882;12.598;2023-06-22T08:11:04;97029.25;;;31.18
64904;BMP280;51401;48.882;12.598;2023-06-22T08:13:29;96961.19;;;31.21
64904;BMP280;51401;48.882;12.598;2023-06-22T08:15:55;96786.50;;;30.86
64904;BMP280;51401;48.882;12.598;2023-06-22T08:18:20;96768.81;;;30.53
64904;BMP280;51401;48.882;12.598;2023-06-22T08:20:45;96587.53;;;30.32
64904;BMP280;51401;48.882;12.598;2023-06-22T08:23:11;96279.09;;;30.87
64904;BMP280;51401;48.882;12.598;2023-06-22T08:25:36;96600.97;;;30.93
64904;BMP280;51401;48.882;12.598;2023-06-22T08:28:03;96495.75;;;30.68
64904;BMP280;51401;48.882;12.598;2023-06-22T08:30:29;96634.06;;;30.73
64904;BMP280;51401;48.882;12.598;2023-06-22T08:32:54;96499.59;;;30.82
64904;BMP280;51401;48.882;12.598;2023-06-22T08:35:22;96633.69;;;31.30
64904;BMP280;51401;48.882;12.598;2023-06-22T08:37:47;96712.56;;;31.58
64904;BMP280;51401;48.882;12.598;2023-06-22T08:40:17;96846.59;;;31.73
64904;BMP280;51401;48.882;12.598;2023-06-22T08:42:42;96810.56;;;31.37
64904;BMP280;51401;48.882;12.598;2023-06-22T08:45:08;96801.44;;;31.40
64904;BMP280;51401;48.882;12.598;2023-06-22T08:47:33;96766.69;;;31.03
64904;BMP280;51401;48.882;12.598;2023-06-22T08:49:59;96831.28;;;31.37
64904;BMP280;51401;48.882;12.598;2023-06-22T08:52:24;96736.59;;;31.34
64904;BMP280;51401;48.882;12.598;2023-06-22T08:54:50;96909.56;;;31.50
64904;BMP280;51401;48.882;12.598;2023-06-22T08:57:16;96932.38;;;31.88
64904;BMP280;51401;48.882;12.598;2023-06-22T08:59:42;97053.09;;;31.73
64904;BMP280;51401;48.882;12.598;2023-06-22T09:02:07;96967.47;;;31.45
64904;BMP280;51401;48.882;12.598;2023-06-22T09:04:33;97041.28;;;32.05
64904;BMP280;51401;48.882;12.598;2023-06-22T09:07:00;97054.16;;;31.55
64904;BMP280;51401;48.882;12.598;2023-06-22T09:09:26;96992.50;;;31.41
64904;BMP280;51401;48.882;12.598;2023-06-22T09:11:54;96775.22;;;30.94
64904;BMP280;51401;48.882;12.598;2023-06-22T09:14:19;96912.25;;;31.28
64904;BMP280;51401;48.882;12.598;2023-06-22T09:16:44;97015.19;;;31.98
64904;BMP280;51401;48.882;12.598;2023-06-22T09:19:10;97032.50;;;32.19
64904;BMP280;51401;48.882;12.598;2023-06-22T09:21:36;97060.63;;;32.11
64904;BMP280;51401;48.882;12.598;2023-06-22T09:24:01;97196.59;;;32.23
64904;BMP280;51401;48.882;12.598;2023-06-22T09:26:27;97167.81;;;32.16
64904;BMP280;51401;48.882;12.598;2023-06-22T09:28:52;97173.16;;;32.24
64904;BMP280;51401;48.882;12.598;2023-06-22T09:31:17;97261.59;;;32.51
64904;BMP280;51401;48.882;12.598;2023-06-22T09:33:46;97275.38;;;32.77
64904;BMP280;51401;48.882;12.598;2023-06-22T09:36:12;97260.13;;;32.35
64904;BMP280;51401;48.882;12.598;2023-06-22T09:38:37;97192.13;;;32.40
64904;BMP280;51401;48.882;12.598;2023-06-22T09:41:03;97328.94;;;32.68
64904;BMP280;51401;48.882;12.598;2023-06-22T09:43:30;97282.91;;;32.49
64904;BMP280;51401;48.882;12.598;2023-06-22T09:45:56;97202.53;;;32.36
64904;BMP280;51401;48.882;12.598;2023-06-22T09:48:21;97295.28;;;32.59
64904;BMP280;51401;48.882;12.598;2023-06-22T09:50:47;97335.19;;;32.70
64904;BMP280;51401;48.882;12.598;2023-06-22T09:53:12;97346.25;;;33.40
64904;BMP280;51401;48.882;12.598;2023-06-22T09:55:37;97377.22;;;34.16
64904;BMP280;51401;48.882;12.598;2023-06-22T09:58:03;97382.53;;;33.10
64904;BMP280;51401;48.882;12.598;2023-06-22T10:00:28;97357.56;;;33.46
64904;BMP280;51401;48.882;12.598;2023-06-22T10:02:53;97414.97;;;33.26
64904;BMP280;51401;48.882;12.598;2023-06-22T10:05:20;97399.19;;;33.30
64904;BMP280;51401;48.882;12.598;2023-06-22T10:07:46;97420.63;;;33.74
64904;BMP280;51401;48.882;12.598;2023-06-22T10:10:12;97379.69;;;33.83
64904;BMP280;51401;48.882;12.598;2023-06-22T10:12:42;97396.63;;;33.69
64904;BMP280;51401;48.882;12.598;2023-06-22T10:15:08;97477.16;;;33.60
64904;BMP280;51401;48.882;12.598;2023-06-22T10:17:33;97462.63;;;33.63
64904;BMP280;51401;48.882;12.598;2023-06-22T10:20:00;97413.53;;;32.81
64904;BMP280;51401;48.882;12.598;2023-06-22T10:22:26;97465.88;;;33.54
64904;BMP280;51401;48.882;12.598;2023-06-22T10:24:51;97478.56;;;33.75
64904;BMP280;51401;48.882;12.598;2023-06-22T10:27:16;97533.13;;;33.61
64904;BMP280;51401;48.882;12.598;2023-06-22T10:29:42;97517.53;;;33.38
64904;BMP280;51401;48.882;12.598;2023-06-22T10:32:08;97536.19;;;33.72
64904;BMP280;51401;48.882;12.598;2023-06-22T10:34:33;97513.94;;;33.28
64904;BMP280;51401;48.882;12.598;2023-06-22T10:36:58;97526.47;;;33.84
64904;BMP280;51401;48.882;12.598;2023-06-22T10:39:24;97533.59;;;34.18
64904;BMP280;51401;48.882;12.598;2023-06-22T10:41:49;97520.69;;;33.07
64904;BMP280;51401;48.882;12.598;2023-06-22T10:44:14;97492.44;;;33.35
64904;BMP280;51401;48.882;12.598;2023-06-22T10:46:40;97502.81;;;33.53
64904;BMP280;51401;48.882;12.598;2023-06-22T10:49:05;97482.38;;;33.36
64904;BMP280;51401;48.882;12.598;2023-06-22T10:51:30;97488.22;;;33.93
64904;BMP280;51401;48.882;12.598;2023-06-22T10:53:57;97537.22;;;33.92
64904;BMP280;51401;48.882;12.598;2023-06-22T10:56:22;97537.41;;;33.71
64904;BMP280;51401;48.882;12.598;2023-06-22T10:58:48;97542.28;;;33.66
64904;BMP280;51401;48.882;12.598;2023-06-22T11:01:13;97510.84;;;33.17
64904;BMP280;51401;48.882;12.598;2023-06-22T11:03:39;97512.50;;;33.78
64904;BMP280;51401;48.882;12.598;2023-06-22T11:06:04;97532.16;;;34.10
64904;BMP280;51401;48.882;12.598;2023-06-22T11:08:29;97520.25;;;34.74
64904;BMP280;51401;48.882;12.598;2023-06-22T11:10:55;97564.41;;;34.47
64904;BMP280;51401;48.882;12.598;2023-06-22T11:13:20;97514.72;;;34.72
64904;BMP280;51401;48.882;12.598;2023-06-22T11:15:45;97560.75;;;34.59
64904;BMP280;51401;48.882;12.598;2023-06-22T11:18:11;97544.69;;;34.37
64904;BMP280;51401;48.882;12.598;2023-06-22T11:20:36;97534.06;;;34.39
64904;BMP280;51401;48.882;12.598;2023-06-22T11:23:06;97518.47;;;34.69
64904;BMP280;51401;48.882;12.598;2023-06-22T11:25:32;97490.19;;;35.32
64904;BMP280;51401;48.882;12.598;2023-06-22T11:28:01;97548.59;;;35.13
64904;BMP280;51401;48.882;12.598;2023-06-22T11:30:26;97567.34;;;34.73
64904;BMP280;51401;48.882;12.598;2023-06-22T11:32:52;97558.84;;;34.83
64904;BMP280;51401;48.882;12.598;2023-06-22T11:35:17;97539.22;;;35.14
64904;BMP280;51401;48.882;12.598;2023-06-22T11:37:42;97559.69;;;34.55
64904;BMP280;51401;48.882;12.598;2023-06-22T11:40:08;97546.66;;;35.06
64904;BMP280;51401;48.882;12.598;2023-06-22T11:42:34;97572.75;;;34.73
64904;BMP280;51401;48.882;12.598;2023-06-22T11:45:00;97535.41;;;34.62
64904;BMP280;51401;48.882;12.598;2023-06-22T11:47:25;97553.19;;;34.96
64904;BMP280;51401;48.882;12.598;2023-06-22T11:49:50;97549.31;;;34.44
64904;BMP280;51401;48.882;12.598;2023-06-22T11:52:16;97551.25;;;34.89
64904;BMP280;51401;48.882;12.598;2023-06-22T11:54:43;97546.38;;;34.57
64904;BMP280;51401;48.882;12.598;2023-06-22T11:57:08;97537.16;;;34.74
64904;BMP280;51401;48.882;12.598;2023-06-22T11:59:34;97518.25;;;34.43
64904;BMP280;51401;48.882;12.598;2023-06-22T12:01:59;97533.78;;;34.66
64904;BMP280;51401;48.882;12.598;2023-06-22T12:04:24;97524.84;;;35.60
64904;BMP280;51401;48.882;12.598;2023-06-22T12:06:50;97539.72;;;35.85
64904;BMP280;51401;48.882;12.598;2023-06-22T12:09:15;97534.03;;;35.97
64904;BMP280;51401;48.882;12.598;2023-06-22T12:11:40;97548.31;;;36.24
64904;BMP280;51401;48.882;12.598;2023-06-22T12:14:06;97546.34;;;36.24
64904;BMP280;51401;48.882;12.598;2023-06-22T12:16:31;97534.19;;;35.99
64904;BMP280;51401;48.882;12.598;2023-06-22T12:18:57;97503.16;;;36.17
64904;BMP280;51401;48.882;12.598;2023-06-22T12:21:22;97521.78;;;35.96
64904;BMP280;51401;48.882;12.598;2023-06-22T12:23:47;97498.44;;;35.10
64904;BMP280;51401;48.882;12.598;2023-06-22T12:26:13;97482.97;;;34.56
64904;BMP280;51401;48.882;12.598;2023-06-22T12:28:38;97458.50;;;34.22
64904;BMP280;51401;48.882;12.598;2023-06-22T12:31:04;97435.25;;;34.49
64904;BMP280;51401;48.882;12.598;2023-06-22T12:33:29;97480.16;;;34.46
64904;BMP280;51401;48.882;12.598;2023-06-22T12:35:57;97483.56;;;34.78
64904;BMP280;51401;48.882;12.598;2023-06-22T12:38:23;97489.84;;;34.49
64904;BMP280;51401;48.882;12.598;2023-06-22T12:40:50;97488.22;;;35.09
64904;BMP280;51401;48.882;12.598;2023-06-22T12:43:16;97489.91;;;35.21
64904;BMP280;51401;48.882;12.598;2023-06-22T12:45:41;97503.19;;;35.67
64904;BMP280;51401;48.882;12.598;2023-06-22T12:48:06;97475.03;;;35.20
64904;BMP280;51401;48.882;12.598;2023-06-22T12:50:33;97499.50;;;35.39
64904;BMP280;51401;48.882;12.598;2023-06-22T12:52:59;97514.16;;;35.86
64904;BMP280;51401;48.882;12.598;2023-06-22T12:55:25;97509.72;;;35.97
64904;BMP280;51401;48.882;12.598;2023-06-22T12:57:50;97487.22;;;35.62
64904;BMP280;51401;48.882;12.598;2023-06-22T13:00:16;97492.66;;;35.38
64904;BMP280;51401;48.882;12.598;2023-06-22T13:02:41;97494.13;;;35.72
64904;BMP280;51401;48.882;12.598;2023-06-22T13:05:07;97490.47;;;36.10
64904;BMP280;51401;48.882;12.598;2023-06-22T13:07:33;97494.13;;;36.22
64904;BMP280;51401;48.882;12.598;2023-06-22T13:09:59;97491.72;;;36.26
64904;BMP280;51401;48.882;12.598;2023-06-22T13:12:24;97501.63;;;36.66
64904;BMP280;51401;48.882;12.598;2023-06-22T13:14:49;97505.78;;;36.67
64904;BMP280;51401;48.882;12.598;2023-06-22T13:17:15;97504.75;;;36.88
64904;BMP280;51401;48.882;12.598;2023-06-22T13:19:40;97487.34;;;36.91
64904;BMP280;51401;48.882;12.598;2023-06-22T13:22:29;97486.88;;;37.11
64904;BMP280;51401;48.882;12.598;2023-06-22T13:24:55;97478.81;;;36.85
64904;BMP280;51401;48.882;12.598;2023-06-22T13:27:21;97480.59;;;36.74
64904;BMP280;51401;48.882;12.598;2023-06-22T13:29:46;97484.47;;;36.71
64904;BMP280;51401;48.882;12.598;2023-06-22T13:32:11;97497.50;;;36.91
64904;BMP280;51401;48.882;12.598;2023-06-22T13:34:37;97486.94;;;37.30
64904;BMP280;51401;48.882;12.598;2023-06-22T13:37:02;97476.47;;;37.08
64904;BMP280;51401;48.882;12.598;2023-06-22T13:39:27;97484.06;;;36.83
64904;BMP280;51401;48.882;12.598;2023-06-22T13:41:53;97489.91;;;37.34
64904;BMP280;51401;48.882;12.598;2023-06-22T13:44:18;97476.28;;;37.50
64904;BMP280;51401;48.882;12.598;2023-06-22T13:46:43;97465.38;;;36.69
64904;BMP280;51401;48.882;12.598;2023-06-22T13:49:09;97467.56;;;36.54
64904;BMP280;51401;48.882;12.598;2023-06-22T13:51:36;97460.06;;;36.97
64904;BMP280;51401;48.882;12.598;2023-06-22T13:54:01;97461.81;;;36.76
64904;BMP280;51401;48.882;12.598;2023-06-22T13:56:26;97450.75;;;36.81